createdAt,value
2024-05-09T00:00:43.834Z,12.30
2024-05-09T00:03:12.464Z,12.20
2024-05-09T00:05:41.400Z,12.20
2024-05-09T00:08:12.231Z,12.20
2024-05-09T00:10:40.724Z,12.10
2024-05-09T00:13:09.617Z,12.10
2024-05-09T00:15:37.329Z,12.10
2024-05-09T00:18:05.776Z,12.10
2024-05-09T00:20:38.751Z,12.10
2024-05-09T00:23:12.510Z,12.00
2024-05-09T00:25:42.433Z,12.00
2024-05-09T00:28:09.739Z,11.90
2024-05-09T00:30:37.512Z,11.90
2024-05-09T00:33:07.005Z,11.90
2024-05-09T00:35:35.608Z,11.90
2024-05-09T00:38:02.985Z,11.90
2024-05-09T00:40:40.443Z,11.80
2024-05-09T00:43:10.399Z,11.80
2024-05-09T00:45:37.682Z,11.70
2024-05-09T00:48:07.718Z,11.70
2024-05-09T00:50:38.918Z,11.70
2024-05-09T00:53:14.961Z,11.70
2024-05-09T00:55:42.536Z,11.70
2024-05-09T00:58:12.409Z,11.70
2024-05-09T01:00:41.423Z,11.60
2024-05-09T01:03:11.792Z,11.60
2024-05-09T01:05:41.034Z,11.50
2024-05-09T01:08:09.256Z,11.60
2024-05-09T01:10:37.239Z,11.50
2024-05-09T01:13:05.086Z,11.50
2024-05-09T01:15:33.167Z,11.50
2024-05-09T01:18:10.368Z,11.50
2024-05-09T01:20:42.302Z,11.40
2024-05-09T01:23:14.128Z,11.30
2024-05-09T01:25:43.087Z,11.30
2024-05-09T01:28:10.283Z,11.30
2024-05-09T01:30:38.127Z,11.30
2024-05-09T01:33:08.562Z,11.30
2024-05-09T01:35:37.818Z,11.30
2024-05-09T01:38:05.340Z,11.30
2024-05-09T01:40:38.007Z,11.30
2024-05-09T01:43:11.592Z,11.20
2024-05-09T01:45:42.500Z,11.20
2024-05-09T01:48:10.576Z,11.20
2024-05-09T01:50:41.614Z,11.20
2024-05-09T01:53:12.000Z,11.10
2024-05-09T01:55:39.366Z,11.10
2024-05-09T01:58:07.188Z,11.10
2024-05-09T02:00:39.675Z,11.00
2024-05-09T02:03:13.350Z,11.00
2024-05-09T02:05:43.778Z,11.00
2024-05-09T02:08:22.041Z,11.10
2024-05-09T02:10:50.382Z,11.00
2024-05-09T02:13:18.012Z,10.90
2024-05-09T02:15:45.259Z,10.90
2024-05-09T02:18:13.111Z,10.90
2024-05-09T02:20:42.076Z,10.90
2024-05-09T02:23:09.951Z,10.90
2024-05-09T02:25:37.103Z,10.80
2024-05-09T02:28:04.331Z,10.80
2024-05-09T02:30:39.311Z,10.70
2024-05-09T02:33:11.041Z,10.80
2024-05-09T02:35:40.051Z,10.80
2024-05-09T02:38:08.628Z,10.80
2024-05-09T02:40:38.306Z,10.70
2024-05-09T02:43:08.260Z,10.60
2024-05-09T02:45:36.175Z,10.60
2024-05-09T02:48:03.422Z,10.60
2024-05-09T02:50:37.574Z,10.50
2024-05-09T02:53:11.654Z,10.50
2024-05-09T02:55:39.299Z,10.40
2024-05-09T02:58:10.282Z,10.50
2024-05-09T03:00:41.078Z,10.40
2024-05-09T03:03:14.555Z,10.30
2024-05-09T03:05:43.921Z,10.30
2024-05-09T03:08:11.286Z,10.30
2024-05-09T03:10:39.318Z,10.30
2024-05-09T03:13:15.678Z,10.20
2024-05-09T03:15:44.498Z,10.20
2024-05-09T03:18:12.513Z,10.10
2024-05-09T03:20:40.237Z,10.10
2024-05-09T03:23:09.484Z,10.10
2024-05-09T03:25:37.773Z,10.10
2024-05-09T03:28:05.212Z,10.10
2024-05-09T03:30:39.986Z,10.00
2024-05-09T03:33:17.426Z,10.00
2024-05-09T03:35:46.296Z,10.00
2024-05-09T03:38:13.570Z,10.00
2024-05-09T03:40:50.825Z,10.00
2024-05-09T03:43:19.177Z,9.90
2024-05-09T03:45:49.544Z,9.90
2024-05-09T03:48:17.200Z,9.90
2024-05-09T03:50:44.475Z,9.90
2024-05-09T03:53:13.284Z,9.90
2024-05-09T03:55:40.950Z,9.90
2024-05-09T03:58:08.670Z,9.90
2024-05-09T04:00:40.056Z,10.00
2024-05-09T04:03:10.490Z,9.90
2024-05-09T04:05:41.623Z,9.90
2024-05-09T04:08:10.244Z,9.90
2024-05-09T04:10:37.670Z,9.80
2024-05-09T04:13:05.201Z,9.80
2024-05-09T04:15:32.620Z,9.90
2024-05-09T04:18:00.176Z,9.80
2024-05-09T04:20:36.632Z,9.80
2024-05-09T04:23:08.640Z,9.80
2024-05-09T04:25:37.542Z,9.80
2024-05-09T04:28:05.335Z,9.80
2024-05-09T04:30:38.089Z,9.80
2024-05-09T04:33:10.261Z,9.80
2024-05-09T04:35:39.572Z,9.80
2024-05-09T04:38:06.958Z,9.90
2024-05-09T04:40:36.672Z,9.80
2024-05-09T04:43:05.686Z,9.90
2024-05-09T04:45:33.190Z,9.90
2024-05-09T04:48:00.848Z,10.00
2024-05-09T04:50:36.014Z,10.00
2024-05-09T04:53:08.351Z,10.00
2024-05-09T04:55:36.898Z,10.00
2024-05-09T04:58:05.039Z,10.00
2024-05-09T05:00:37.231Z,10.10
2024-05-09T05:03:09.490Z,10.00
2024-05-09T05:05:40.339Z,10.10
2024-05-09T05:08:18.796Z,10.10
2024-05-09T05:10:47.950Z,10.10
2024-05-09T05:13:16.458Z,10.10
2024-05-09T05:15:44.172Z,10.20
2024-05-09T05:18:11.350Z,10.20
2024-05-09T05:20:38.632Z,10.20
2024-05-09T05:23:08.880Z,10.30
2024-05-09T05:25:36.028Z,10.30
2024-05-09T05:28:04.216Z,10.50
2024-05-09T05:30:34.694Z,10.50
2024-05-09T05:33:02.573Z,10.50
2024-05-09T05:35:29.863Z,10.60
2024-05-09T05:37:57.031Z,10.60
2024-05-09T05:40:32.734Z,10.80
2024-05-09T05:43:08.653Z,10.80
2024-05-09T05:45:36.201Z,10.80
2024-05-09T05:48:05.549Z,10.90
2024-05-09T05:50:36.512Z,10.90
2024-05-09T05:53:07.955Z,10.90
2024-05-09T05:55:36.815Z,11.00
2024-05-09T05:58:04.272Z,11.00
2024-05-09T06:00:38.256Z,11.00
2024-05-09T06:03:08.193Z,11.00
2024-05-09T06:05:37.155Z,11.10
2024-05-09T06:08:04.813Z,11.10
2024-05-09T06:10:38.106Z,11.20
2024-05-09T06:13:08.048Z,11.20
2024-05-09T06:15:35.103Z,11.20
2024-05-09T06:18:04.638Z,11.30
2024-05-09T06:20:36.164Z,11.30
2024-05-09T06:23:09.654Z,11.50
2024-05-09T06:25:37.295Z,11.50
2024-05-09T06:28:05.003Z,11.50
2024-05-09T06:30:40.299Z,11.50
2024-05-09T06:33:11.741Z,11.60
2024-05-09T06:35:40.960Z,11.60
2024-05-09T06:38:11.758Z,11.70
2024-05-09T06:40:42.528Z,11.70
2024-05-09T06:43:12.058Z,11.80
2024-05-09T06:45:40.072Z,11.90
2024-05-09T06:48:08.911Z,11.90
2024-05-09T06:50:38.311Z,11.90
2024-05-09T06:53:07.724Z,12.00
2024-05-09T06:55:34.988Z,12.10
2024-05-09T06:58:02.097Z,12.00
2024-05-09T07:00:35.950Z,12.10
2024-05-09T07:03:12.010Z,12.10
2024-05-09T07:05:40.509Z,12.30
2024-05-09T07:08:08.214Z,12.30
2024-05-09T07:10:36.519Z,12.30
2024-05-09T07:13:09.140Z,12.30
2024-05-09T07:15:36.195Z,12.40
2024-05-09T07:18:15.847Z,12.40
2024-05-09T07:20:44.048Z,12.60
2024-05-09T07:23:12.527Z,12.60
2024-05-09T07:25:41.604Z,12.70
2024-05-09T07:28:16.644Z,12.70
2024-05-09T07:30:44.570Z,12.70
2024-05-09T07:33:23.096Z,12.80
2024-05-09T07:35:51.612Z,12.80
2024-05-09T07:38:19.061Z,12.80
2024-05-09T07:40:46.468Z,12.80
2024-05-09T07:43:14.922Z,12.90
2024-05-09T07:45:51.266Z,12.90
2024-05-09T07:52:37.200Z,13.00
2024-05-09T07:53:47.330Z,13.10
2024-05-09T07:56:19.137Z,13.20
2024-05-09T07:58:51.261Z,13.30
2024-05-09T08:01:19.062Z,13.30
2024-05-09T08:03:46.559Z,13.40
2024-05-09T08:06:13.895Z,13.30
2024-05-09T08:08:40.946Z,13.50
2024-05-09T08:11:08.025Z,13.60
2024-05-09T08:13:35.048Z,13.50
2024-05-09T08:16:02.108Z,13.60
2024-05-09T08:18:30.634Z,13.70
2024-05-09T08:20:58.506Z,13.80
2024-05-09T08:23:25.587Z,13.80
2024-05-09T08:25:55.308Z,13.80
2024-05-09T08:28:22.306Z,13.90
2024-05-09T08:30:49.730Z,14.00
2024-05-09T08:33:16.974Z,13.90
2024-05-09T08:35:44.151Z,13.90
2024-05-09T08:38:11.324Z,14.00
2024-05-09T08:40:38.835Z,14.10
2024-05-09T08:43:11.607Z,14.20
2024-05-09T08:45:44.189Z,14.10
2024-05-09T08:48:14.703Z,14.10
2024-05-09T08:50:43.787Z,14.30
2024-05-09T08:53:11.651Z,14.30
2024-05-09T08:55:42.022Z,14.40
2024-05-09T08:58:20.732Z,14.50
2024-05-09T09:00:48.473Z,14.50
2024-05-09T09:03:19.081Z,14.50
2024-05-09T09:05:52.359Z,14.60
2024-05-09T09:08:21.237Z,14.70
2024-05-09T09:10:48.811Z,14.70
2024-05-09T09:13:16.111Z,14.90
2024-05-09T09:15:49.467Z,14.90
2024-05-09T09:18:17.757Z,14.90
2024-05-09T09:20:45.686Z,15.00
2024-05-09T09:23:12.845Z,15.10
2024-05-09T09:25:40.699Z,15.00
2024-05-09T09:28:08.494Z,15.10
2024-05-09T09:30:42.377Z,15.20
2024-05-09T09:33:10.344Z,15.20
2024-05-09T09:35:39.877Z,15.20
2024-05-09T09:38:07.878Z,15.20
2024-05-09T09:40:40.815Z,15.30
2024-05-09T09:43:22.019Z,15.20
2024-05-09T09:45:51.815Z,15.20
2024-05-09T09:48:20.378Z,15.30
2024-05-09T09:50:48.569Z,15.30
2024-05-09T09:53:16.851Z,15.30
2024-05-09T09:55:44.220Z,15.40
2024-05-09T09:58:14.247Z,15.40
2024-05-09T10:00:42.266Z,15.50
2024-05-09T10:03:09.715Z,15.60
2024-05-09T10:05:37.528Z,15.70
2024-05-09T10:08:08.281Z,15.70
2024-05-09T10:10:36.265Z,15.70
2024-05-09T10:13:07.572Z,15.70
2024-05-09T10:15:51.857Z,15.60
2024-05-09T10:18:28.127Z,15.70
2024-05-09T10:20:57.511Z,15.60
2024-05-09T10:23:34.602Z,15.60
2024-05-09T10:26:06.231Z,15.80
2024-05-09T10:28:36.028Z,15.70
2024-05-09T10:31:10.467Z,15.80
2024-05-09T10:33:46.741Z,15.80
2024-05-09T10:36:19.012Z,15.70
2024-05-09T10:38:46.287Z,15.80
2024-05-09T10:41:13.662Z,16.00
2024-05-09T10:43:41.614Z,15.90
2024-05-09T10:46:09.823Z,16.00
2024-05-09T10:48:38.318Z,15.90
2024-05-09T10:51:05.956Z,15.90
2024-05-09T10:53:43.569Z,15.90
2024-05-09T10:56:11.196Z,15.80
2024-05-09T10:58:38.207Z,15.80
2024-05-09T11:01:07.285Z,15.90
2024-05-09T11:03:35.660Z,15.90
2024-05-09T11:06:03.498Z,16.00
2024-05-09T11:08:32.959Z,16.00
2024-05-09T11:11:00.679Z,16.00
2024-05-09T11:13:38.641Z,15.90
2024-05-09T11:16:16.302Z,16.00
2024-05-09T11:18:43.956Z,16.10
2024-05-09T11:21:14.167Z,16.10
2024-05-09T11:23:41.765Z,16.20
2024-05-09T11:26:10.834Z,16.20
2024-05-09T11:28:38.078Z,16.20
2024-05-09T11:31:07.563Z,16.30
2024-05-09T11:33:43.943Z,16.30
2024-05-09T11:36:12.211Z,16.30
2024-05-09T11:38:39.605Z,16.30
2024-05-09T11:41:06.954Z,16.20
2024-05-09T11:43:34.096Z,16.30
2024-05-09T11:46:02.826Z,16.40
2024-05-09T11:48:30.637Z,16.50
2024-05-09T11:50:58.023Z,16.50
2024-05-09T11:53:25.023Z,16.50
2024-05-09T11:55:52.150Z,16.50
2024-05-09T11:58:21.570Z,16.40
2024-05-09T12:00:48.727Z,16.30
2024-05-09T12:03:16.228Z,16.30
2024-05-09T12:05:43.524Z,16.30
2024-05-09T12:08:10.923Z,16.30
2024-05-09T12:10:38.449Z,16.30
2024-05-09T12:13:07.204Z,16.30
2024-05-09T12:15:39.129Z,16.30
2024-05-09T12:18:08.005Z,16.30
2024-05-09T12:20:38.794Z,16.20
2024-05-09T12:23:10.029Z,16.20
2024-05-09T12:25:40.068Z,16.30
2024-05-09T12:28:09.113Z,16.20
2024-05-09T12:30:40.839Z,16.20
2024-05-09T12:33:12.162Z,16.30
2024-05-09T12:35:40.577Z,16.20
2024-05-09T12:38:09.363Z,16.30
2024-05-09T12:40:38.701Z,16.30
2024-05-09T12:43:08.578Z,16.40
2024-05-09T12:45:37.635Z,16.40
2024-05-09T12:48:07.577Z,16.50
2024-05-09T12:50:35.441Z,16.40
2024-05-09T12:53:03.994Z,16.40
2024-05-09T12:55:40.261Z,16.30
2024-05-09T12:58:16.081Z,16.30
2024-05-09T13:00:43.941Z,16.20
2024-05-09T13:03:11.262Z,16.30
2024-05-09T13:05:41.371Z,16.30
2024-05-09T13:08:08.765Z,16.40
2024-05-09T13:10:36.111Z,16.30
2024-05-09T13:13:03.322Z,16.30
2024-05-09T13:15:31.444Z,16.30
2024-05-09T13:18:02.074Z,16.40
2024-05-09T13:20:34.307Z,16.50
2024-05-09T13:23:08.105Z,16.40
2024-05-09T13:25:37.131Z,16.60
2024-05-09T13:28:05.985Z,16.60
2024-05-09T13:30:39.600Z,16.60
2024-05-09T13:33:13.661Z,16.60
2024-05-09T13:35:48.787Z,16.50
2024-05-09T13:38:21.863Z,16.60
2024-05-09T13:40:50.228Z,16.50
2024-05-09T13:43:18.383Z,16.50
2024-05-09T13:45:46.141Z,16.40
2024-05-09T13:48:13.513Z,16.50
2024-05-09T13:50:40.730Z,16.50
2024-05-09T13:53:08.929Z,16.50
2024-05-09T13:55:39.975Z,16.60
2024-05-09T13:58:08.761Z,16.60
2024-05-09T14:00:44.997Z,16.60
2024-05-09T14:03:17.111Z,16.60
2024-05-09T14:05:46.424Z,16.70
2024-05-09T14:08:15.416Z,16.70
2024-05-09T14:10:45.154Z,16.70
2024-05-09T14:13:13.086Z,16.70
2024-05-09T14:15:40.958Z,16.60
2024-05-09T14:18:12.381Z,16.80
2024-05-09T14:20:41.127Z,16.70
2024-05-09T14:23:08.300Z,16.70
2024-05-09T14:25:38.945Z,16.80
2024-05-09T14:28:09.449Z,16.70
2024-05-09T14:30:38.198Z,16.70
2024-05-09T14:33:07.706Z,16.70
2024-05-09T14:35:37.365Z,16.80
2024-05-09T14:38:04.835Z,16.70
2024-05-09T14:43:03.509Z,16.70
2024-05-09T14:45:32.531Z,16.80
2024-05-09T14:47:59.704Z,16.90
2024-05-09T14:50:34.815Z,16.90
2024-05-09T14:53:06.393Z,17.10
2024-05-09T14:55:35.930Z,17.00
2024-05-09T14:58:04.044Z,17.10
2024-05-09T15:00:35.874Z,17.00
2024-05-09T15:03:05.202Z,16.90
2024-05-09T15:05:32.419Z,17.00
2024-05-09T15:08:00.165Z,16.90
2024-05-09T15:10:34.180Z,16.90
2024-05-09T15:13:03.735Z,16.90
2024-05-09T15:15:31.240Z,16.90
2024-05-09T15:17:58.500Z,16.90
2024-05-09T15:20:33.093Z,16.90
2024-05-09T15:23:03.668Z,17.00
2024-05-09T15:25:31.308Z,16.90
2024-05-09T15:27:58.525Z,16.90
2024-05-09T15:32:55.626Z,16.90
2024-05-09T15:35:22.734Z,16.90
2024-05-09T15:37:49.861Z,17.00
2024-05-09T15:40:26.203Z,16.90
2024-05-09T15:43:02.607Z,17.00
2024-05-09T15:45:30.743Z,16.90
2024-05-09T15:48:00.230Z,16.90
2024-05-09T15:50:36.763Z,16.90
2024-05-09T15:53:09.710Z,16.90
2024-05-09T15:55:38.353Z,16.90
2024-05-09T15:58:06.698Z,17.00
2024-05-09T16:00:39.120Z,17.00
2024-05-09T16:03:13.591Z,17.00
2024-05-09T16:05:46.333Z,17.00
2024-05-09T16:08:14.918Z,16.90
2024-05-09T16:10:44.384Z,17.00
2024-05-09T16:13:13.009Z,16.90
2024-05-09T16:15:40.209Z,16.90
2024-05-09T16:18:07.796Z,16.90
2024-05-09T16:20:40.040Z,16.90
2024-05-09T16:23:09.596Z,16.90
2024-05-09T16:25:37.032Z,16.90
2024-05-09T16:28:08.705Z,16.90
2024-05-09T16:30:38.885Z,16.90
2024-05-09T16:33:06.654Z,16.90
2024-05-09T16:35:34.863Z,16.90
2024-05-09T16:38:03.347Z,16.90
2024-05-09T16:40:37.791Z,16.90
2024-05-09T16:43:12.151Z,16.90
2024-05-09T16:45:41.319Z,16.90
2024-05-09T16:48:09.148Z,16.80
2024-05-09T16:50:36.851Z,16.90
2024-05-09T16:53:05.849Z,16.90
2024-05-09T16:55:34.383Z,16.90
2024-05-09T16:58:02.522Z,17.00
2024-05-09T17:00:39.298Z,16.90
2024-05-09T17:03:11.765Z,16.90
2024-05-09T17:05:40.216Z,16.90
2024-05-09T17:08:08.131Z,16.90
2024-05-09T17:10:36.354Z,16.90
2024-05-09T17:13:05.148Z,17.00
2024-05-09T17:15:33.953Z,17.00
2024-05-09T17:18:02.046Z,17.00
2024-05-09T17:20:34.116Z,17.00
2024-05-09T17:23:05.370Z,16.90
2024-05-09T17:25:33.335Z,16.90
2024-05-09T17:28:06.640Z,16.90
2024-05-09T17:30:37.271Z,16.90
2024-05-09T17:33:07.729Z,16.90
2024-05-09T17:35:36.225Z,16.90
2024-05-09T17:38:05.303Z,16.90
2024-05-09T17:40:35.909Z,16.90
2024-05-09T17:43:06.453Z,16.80
2024-05-09T17:45:35.046Z,16.80
2024-05-09T17:48:02.830Z,16.90
2024-05-09T17:50:35.662Z,16.80
2024-05-09T17:53:05.887Z,16.80
2024-05-09T17:55:33.328Z,16.80
2024-05-09T17:58:00.874Z,16.80
2024-05-09T18:00:37.178Z,16.90
2024-05-09T18:03:08.648Z,16.90
2024-05-09T18:05:37.093Z,16.90
2024-05-09T18:08:06.128Z,16.90
2024-05-09T18:10:37.277Z,16.90
2024-05-09T18:13:08.325Z,16.90
2024-05-09T18:15:36.023Z,16.90
2024-05-09T18:18:04.015Z,16.90
2024-05-09T18:20:40.213Z,16.80
2024-05-09T18:23:11.903Z,16.80
2024-05-09T18:25:39.278Z,16.80
2024-05-09T18:28:07.065Z,16.80
2024-05-09T18:30:36.523Z,16.80
2024-05-09T18:33:06.687Z,16.80
2024-05-09T18:35:35.183Z,16.80
2024-05-09T18:38:02.733Z,16.70
2024-05-09T18:40:34.450Z,16.70
2024-05-09T18:43:06.467Z,16.70
2024-05-09T18:45:36.877Z,16.70
2024-05-09T18:48:05.624Z,16.70
2024-05-09T18:50:37.600Z,16.70
2024-05-09T18:53:07.678Z,16.70
2024-05-09T18:55:35.260Z,16.70
2024-05-09T18:58:04.117Z,16.70
2024-05-09T19:00:36.095Z,16.60
2024-05-09T19:03:12.404Z,16.70
2024-05-09T19:05:42.798Z,16.60
2024-05-09T19:08:11.193Z,16.60
2024-05-09T19:10:39.134Z,16.60
2024-05-09T19:13:10.946Z,16.60
2024-05-09T19:15:40.926Z,16.60
2024-05-09T19:18:09.779Z,16.50
2024-05-09T19:20:37.670Z,16.50
2024-05-09T19:23:06.534Z,16.60
2024-05-09T19:25:34.695Z,16.50
2024-05-09T19:28:01.991Z,16.50
2024-05-09T19:30:37.278Z,16.50
2024-05-09T19:33:09.288Z,16.50
2024-05-09T19:35:36.981Z,16.50
2024-05-09T19:38:05.175Z,16.40
2024-05-09T19:40:34.131Z,16.40
2024-05-09T19:43:03.253Z,16.30
2024-05-09T19:45:33.381Z,16.20
2024-05-09T19:48:01.476Z,16.20
2024-05-09T19:50:37.101Z,16.10
2024-05-09T19:53:10.666Z,16.00
2024-05-09T19:55:38.251Z,15.90
2024-05-09T19:58:07.361Z,15.90
2024-05-09T20:00:38.025Z,15.80
2024-05-09T20:03:07.787Z,15.80
2024-05-09T20:05:36.301Z,15.70
2024-05-09T20:08:04.293Z,15.70
2024-05-09T20:10:33.772Z,15.60
2024-05-09T20:13:03.013Z,15.60
2024-05-09T20:15:31.319Z,15.60
2024-05-09T20:17:58.570Z,15.50
2024-05-09T20:20:33.816Z,15.50
2024-05-09T20:23:09.362Z,15.50
2024-05-09T20:25:36.668Z,15.40
2024-05-09T20:28:04.229Z,15.40
2024-05-09T20:30:34.027Z,15.40
2024-05-09T20:33:07.435Z,15.40
2024-05-09T20:35:35.776Z,15.30
2024-05-09T20:38:03.613Z,15.30
2024-05-09T20:40:35.528Z,15.30
2024-05-09T20:43:06.563Z,15.20
2024-05-09T20:45:34.685Z,15.20
2024-05-09T20:48:02.578Z,15.20
2024-05-09T20:50:37.394Z,15.10
2024-05-09T20:53:10.125Z,15.00
2024-05-09T20:55:37.690Z,14.90
2024-05-09T20:58:05.055Z,15.00
2024-05-09T21:00:39.894Z,14.90
2024-05-09T21:03:10.823Z,14.90
2024-05-09T21:05:38.681Z,14.80
2024-05-09T21:08:06.550Z,14.80
2024-05-09T21:10:35.035Z,14.80
2024-05-09T21:13:03.595Z,14.80
2024-05-09T21:15:31.684Z,14.70
2024-05-09T21:17:59.115Z,14.70
2024-05-09T21:20:31.713Z,14.70
2024-05-09T21:23:02.112Z,14.70
2024-05-09T21:25:29.868Z,14.70
2024-05-09T21:27:57.076Z,14.60
2024-05-09T21:32:54.423Z,14.60
2024-05-09T21:35:21.501Z,14.60
2024-05-09T21:37:48.595Z,14.60
2024-05-09T21:40:24.378Z,14.50
2024-05-09T21:42:58.483Z,14.50
2024-05-09T21:45:25.539Z,14.50
2024-05-09T21:47:52.729Z,14.40
2024-05-09T21:50:27.355Z,14.30
2024-05-09T21:52:58.925Z,14.30
2024-05-09T21:55:26.068Z,14.30
2024-05-09T21:57:53.183Z,14.30
2024-05-09T22:00:28.421Z,14.30
2024-05-09T22:03:02.588Z,14.30
2024-05-09T22:05:29.800Z,14.20
2024-05-09T22:07:57.243Z,14.20
2024-05-09T22:10:30.668Z,14.10
2024-05-09T22:13:01.838Z,14.00
2024-05-09T22:15:29.148Z,14.00
2024-05-09T22:17:57.473Z,13.90
2024-05-09T22:20:34.276Z,13.80
2024-05-09T22:23:05.337Z,13.80
2024-05-09T22:25:33.004Z,13.80
2024-05-09T22:28:01.789Z,13.80
2024-05-09T22:30:36.791Z,13.80
2024-05-09T22:33:11.054Z,13.90
2024-05-09T22:35:40.378Z,13.70
2024-05-09T22:38:08.029Z,13.70
2024-05-09T22:40:45.575Z,13.80
2024-05-09T22:43:24.320Z,13.70
2024-05-09T22:45:54.584Z,13.70
2024-05-09T22:48:22.303Z,13.70
2024-05-09T22:50:49.639Z,13.70
2024-05-09T22:53:17.044Z,13.70
2024-05-09T22:55:44.416Z,13.60
2024-05-09T22:58:11.482Z,13.60
2024-05-09T23:00:38.690Z,13.60
2024-05-09T23:03:06.303Z,13.60
2024-05-09T23:05:33.450Z,13.50
2024-05-09T23:08:03.789Z,13.50
2024-05-09T23:10:36.208Z,13.60
2024-05-09T23:13:06.797Z,13.50
2024-05-09T23:15:34.689Z,13.40
2024-05-09T23:18:01.981Z,13.40
2024-05-09T23:20:36.393Z,13.40
2024-05-09T23:23:10.855Z,13.40
2024-05-09T23:25:41.443Z,13.30
2024-05-09T23:28:08.926Z,13.30
2024-05-09T23:30:39.581Z,13.20
2024-05-09T23:33:12.636Z,13.30
2024-05-09T23:35:41.918Z,13.20
2024-05-09T23:38:08.929Z,13.20
2024-05-09T23:40:39.634Z,13.20
2024-05-09T23:43:12.527Z,13.20
2024-05-09T23:45:40.928Z,13.20
2024-05-09T23:48:08.617Z,13.10
2024-05-09T23:50:38.267Z,13.10
2024-05-09T23:53:08.462Z,13.20
2024-05-09T23:55:36.788Z,13.10
2024-05-09T23:58:04.167Z,13.00
